Time;durP1;ratioP1;P1;durP2;ratioP2;P2;SDS_P1;SDS_P2;PMS_P1;PMS_P2;Temp;Humidity;BMP_temperature;BMP_pressure;BME280_temperature;BME280_humidity;BME280_pressure;Samples;Min_cycle;Max_cycle;Signal;HPM_P1;HPM_P2
2023/06/02 00:02:17;;;;;;;4.47;3.20;;;13.70;99.90;;;;;;5057443;28;20044;-41
2023/06/02 00:04:44;;;;;;;4.63;3.35;;;13.80;99.90;;;;;;5077655;28;20035;-41
2023/06/02 00:07:11;;;;;;;4.40;3.08;;;13.80;99.90;;;;;;5080671;28;20041;-41
2023/06/02 00:09:38;;;;;;;3.35;2.83;;;13.90;99.90;;;;;;5077013;28;20032;-41
2023/06/02 00:12:05;;;;;;;4.57;3.50;;;13.90;99.90;;;;;;5080304;28;20024;-41
2023/06/02 00:14:32;;;;;;;4.28;3.20;;;13.80;99.90;;;;;;5079438;28;20036;-41
2023/06/02 00:17:00;;;;;;;4.10;3.60;;;13.90;99.90;;;;;;5078898;28;20662;-42
2023/06/02 00:19:26;;;;;;;;;;;14.00;99.90;;;;;;5084649;28;20460;-41
2023/06/02 00:21:53;;;;;;;5.55;3.58;;;14.00;99.90;;;;;;5081508;28;19970;-41
2023/06/02 00:24:19;;;;;;;4.47;3.70;;;14.00;99.90;;;;;;5078541;28;20036;-41
2023/06/02 00:26:44;;;;;;;4.43;3.25;;;14.00;99.90;;;;;;5081907;28;20089;-41
2023/06/02 00:29:10;;;;;;;4.65;3.30;;;14.00;99.90;;;;;;5080050;28;20028;-41
2023/06/02 00:31:36;;;;;;;4.32;3.63;;;14.00;99.90;;;;;;5076492;28;20598;-41
2023/06/02 00:34:01;;;;;;;4.43;3.00;;;14.00;99.90;;;;;;5080492;28;20054;-41
2023/06/02 00:36:27;;;;;;;4.78;3.17;;;13.90;99.90;;;;;;5077760;28;20024;-41
2023/06/02 00:38:53;;;;;;;3.72;2.95;;;13.90;99.90;;;;;;5080782;28;20020;-41
2023/06/02 00:41:18;;;;;;;5.20;2.95;;;13.90;99.90;;;;;;5077261;28;20070;-41
2023/06/02 00:43:44;;;;;;;4.43;3.22;;;13.90;99.90;;;;;;5081016;28;20028;-41
2023/06/02 00:46:09;;;;;;;5.30;3.38;;;13.80;99.90;;;;;;5079233;28;20507;-41
2023/06/02 00:48:35;;;;;;;5.22;3.25;;;13.80;99.90;;;;;;5080486;28;20027;-41
2023/06/02 00:51:02;;;;;;;3.00;2.67;;;13.70;99.90;;;;;;5075005;28;20200;-41
2023/06/02 00:53:27;;;;;;;3.47;2.90;;;13.70;99.90;;;;;;5075651;28;20085;-41
2023/06/02 00:55:54;;;;;;;3.30;2.83;;;13.70;99.90;;;;;;5078723;28;20037;-41
2023/06/02 00:58:21;;;;;;;3.67;3.35;;;13.50;99.90;;;;;;5077858;28;20032;-41
2023/06/02 01:00:47;;;;;;;3.25;2.90;;;13.50;99.90;;;;;;5076224;28;20047;-33
2023/06/02 01:03:16;;;;;;;3.60;3.30;;;13.40;99.90;;;;;;5072637;28;20568;-32
2023/06/02 01:05:44;;;;;;;3.30;3.00;;;13.50;99.90;;;;;;5074277;28;20091;-33
2023/06/02 01:08:11;;;;;;;4.22;3.33;;;13.50;99.90;;;;;;5079265;28;20029;-33
2023/06/02 01:10:37;;;;;;;3.70;3.40;;;13.50;99.90;;;;;;5081932;28;20092;-34
2023/06/02 01:13:03;;;;;;;5.40;3.30;;;13.50;99.90;;;;;;5076429;28;20032;-33
2023/06/02 01:15:29;;;;;;;4.00;3.45;;;13.50;99.90;;;;;;5101306;22;20474;-75
2023/06/02 01:17:57;;;;;;;3.90;3.20;;;13.50;99.90;;;;;;5144945;22;20087;-90
2023/06/02 01:20:24;;;;;;;3.40;3.00;;;13.50;99.90;;;;;;5043718;28;20075;-90
2023/06/02 01:23:05;;;;;;;3.85;3.25;;;13.40;99.90;;;;;;5057003;28;20092;-90
2023/06/02 01:25:32;;;;;;;4.10;3.10;;;13.30;99.90;;;;;;5056866;28;20036;-88
2023/06/02 01:27:58;;;;;;;4.78;3.30;;;13.20;99.90;;;;;;5060022;28;20100;-89
2023/06/02 01:30:25;;;;;;;4.60;3.30;;;13.20;99.90;;;;;;5056992;28;20047;-90
2023/06/02 01:33:04;;;;;;;3.72;3.25;;;13.20;99.90;;;;;;5051808;28;20048;-90
2023/06/02 01:35:34;;;;;;;4.47;3.10;;;13.00;99.90;;;;;;5051985;28;20032;-89
2023/06/02 01:38:00;;;;;;;4.78;3.90;;;13.00;99.90;;;;;;5057326;28;20021;-90
2023/06/02 01:40:29;;;;;;;3.38;3.05;;;13.00;99.90;;;;;;5058394;28;20031;-90
2023/06/02 01:42:56;;;;;;;4.53;3.80;;;13.00;99.90;;;;;;5053635;28;20028;-91
2023/06/02 01:45:23;;;;;;;6.18;3.35;;;12.80;99.90;;;;;;5068940;28;20093;-90
2023/06/02 01:47:49;;;;;;;4.03;3.67;;;12.50;99.90;;;;;;5051443;28;20107;-90
2023/06/02 01:50:15;;;;;;;6.85;3.58;;;12.60;99.90;;;;;;5056689;28;20052;-91
2023/06/02 01:52:40;;;;;;;3.55;3.00;;;12.70;99.90;;;;;;5058907;28;20527;-89
2023/06/02 01:55:07;;;;;;;4.75;3.70;;;12.60;99.90;;;;;;5040644;28;20529;-90
2023/06/02 01:57:34;;;;;;;4.32;3.45;;;12.50;99.90;;;;;;5058209;28;20032;-90
2023/06/02 02:00:01;;;;;;;3.33;2.83;;;12.00;99.90;;;;;;5061036;28;20323;-89
2023/06/02 02:02:27;;;;;;;3.67;3.30;;;12.10;99.90;;;;;;5070381;28;20497;-89
2023/06/02 02:04:53;;;;;;;5.72;3.63;;;12.20;99.90;;;;;;5060731;28;20028;-90
2023/06/02 02:07:19;;;;;;;4.93;3.83;;;12.30;99.90;;;;;;5057705;28;20025;-89
2023/06/02 02:09:46;;;;;;;4.53;3.40;;;12.20;99.90;;;;;;5050639;28;20578;-89
2023/06/02 02:12:12;;;;;;;7.30;4.20;;;12.10;99.90;;;;;;5057272;28;20056;-90
2023/06/02 02:14:38;;;;;;;3.55;3.20;;;12.00;99.90;;;;;;5057548;28;20036;-90
2023/06/02 02:17:04;;;;;;;3.42;3.13;;;12.10;99.90;;;;;;5055067;28;20129;-90
2023/06/02 02:19:31;;;;;;;5.35;4.38;;;12.00;99.90;;;;;;5055990;28;20024;-90
2023/06/02 02:22:00;;;;;;;4.25;3.65;;;12.00;99.90;;;;;;5059137;28;20021;-90
2023/06/02 02:24:25;;;;;;;5.97;3.72;;;12.00;99.90;;;;;;5059136;28;20033;-91
2023/06/02 02:26:51;;;;;;;5.38;3.70;;;12.10;99.90;;;;;;5061524;28;20128;-90
2023/06/02 02:29:17;;;;;;;5.85;3.63;;;12.10;99.90;;;;;;5052692;28;20037;-90
2023/06/02 02:31:43;;;;;;;7.60;3.63;;;12.10;99.90;;;;;;5049655;28;20097;-90
2023/06/02 02:34:08;;;;;;;4.93;3.78;;;12.10;99.90;;;;;;5057763;28;20029;-90
2023/06/02 02:36:34;;;;;;;7.65;4.15;;;12.10;99.90;;;;;;5061212;28;20031;-90
2023/06/02 02:39:00;;;;;;;4.85;3.60;;;12.10;99.90;;;;;;5050444;28;20059;-90
2023/06/02 02:41:26;;;;;;;7.15;3.85;;;12.10;99.90;;;;;;5063629;28;20088;-91
2023/06/02 02:43:52;;;;;;;6.57;3.78;;;12.10;99.90;;;;;;5064101;28;20055;-89
2023/06/02 02:46:18;;;;;;;5.32;4.32;;;12.10;99.90;;;;;;5060968;28;20036;-89
2023/06/02 02:48:44;;;;;;;4.30;3.38;;;12.00;99.90;;;;;;5066069;28;20060;-89
2023/06/02 02:51:09;;;;;;;4.20;3.50;;;12.00;99.90;;;;;;5060690;28;20029;-89
2023/06/02 02:53:35;;;;;;;6.50;3.90;;;11.90;99.90;;;;;;5065821;28;20564;-89
2023/06/02 02:56:02;;;;;;;6.65;4.10;;;11.70;99.90;;;;;;5065309;28;20016;-91
2023/06/02 02:58:31;;;;;;;4.40;4.00;;;11.70;99.90;;;;;;5058906;28;20100;-90
2023/06/02 03:00:57;;;;;;;5.88;3.80;;;11.60;99.90;;;;;;5057688;28;20032;-90
2023/06/02 03:03:23;;;;;;;5.57;4.03;;;11.60;99.90;;;;;;5060261;28;20035;-89
2023/06/02 03:05:49;;;;;;;5.70;4.00;;;11.70;99.90;;;;;;5065740;28;20032;-89
2023/06/02 03:08:17;;;;;;;5.55;4.32;;;11.50;99.90;;;;;;5062835;28;20040;-89
2023/06/02 03:10:44;;;;;;;7.45;4.28;;;11.30;99.90;;;;;;5065503;28;20043;-89
2023/06/02 03:13:11;;;;;;;6.70;4.28;;;11.30;99.90;;;;;;5064255;28;20075;-90
2023/06/02 03:15:37;;;;;;;5.25;4.30;;;11.30;99.90;;;;;;5060549;28;20376;-89
2023/06/02 03:18:03;;;;;;;5.70;4.15;;;11.50;99.90;;;;;;5063717;28;20271;-89
2023/06/02 03:20:29;;;;;;;7.88;4.10;;;11.50;99.90;;;;;;5060110;28;20041;-89
2023/06/02 03:22:55;;;;;;;4.43;4.03;;;11.50;99.90;;;;;;5065579;28;20032;-89
2023/06/02 03:25:21;;;;;;;5.88;3.58;;;11.50;99.90;;;;;;5058275;28;20552;-90
2023/06/02 03:27:50;;;;;;;5.63;3.85;;;11.60;99.90;;;;;;5059030;28;20074;-90
2023/06/02 03:30:16;;;;;;;6.45;4.43;;;11.60;99.90;;;;;;5055804;28;20086;-91
2023/06/02 03:32:42;;;;;;;5.03;3.70;;;11.60;99.90;;;;;;5056065;28;20037;-90
2023/06/02 03:35:08;;;;;;;5.97;4.00;;;11.50;99.90;;;;;;5057540;28;20158;-90
2023/06/02 03:37:34;;;;;;;6.45;4.15;;;11.50;99.90;;;;;;5056542;28;20173;-90
2023/06/02 03:40:00;;;;;;;4.40;3.70;;;11.50;99.90;;;;;;5068510;28;20024;-89
2023/06/02 03:42:27;;;;;;;5.95;4.03;;;11.50;99.90;;;;;;5061574;28;20037;-89
2023/06/02 03:44:53;;;;;;;7.00;4.43;;;11.50;99.90;;;;;;5057338;28;20099;-89
2023/06/02 03:47:18;;;;;;;5.70;3.80;;;11.40;99.90;;;;;;5062857;28;20044;-90
2023/06/02 03:49:44;;;;;;;4.93;4.10;;;11.40;99.90;;;;;;5058912;28;20397;-90
2023/06/02 03:52:13;;;;;;;5.15;4.38;;;11.40;99.90;;;;;;5060683;28;20033;-90
2023/06/02 03:54:39;;;;;;;5.45;3.83;;;11.40;99.90;;;;;;5056625;28;20511;-91
2023/06/02 03:57:05;;;;;;;4.97;4.03;;;11.50;99.90;;;;;;5045105;28;20056;-90
2023/06/02 03:59:31;;;;;;;5.90;4.25;;;11.50;99.90;;;;;;5051897;28;20025;-89
2023/06/02 04:01:58;;;;;;;4.82;4.32;;;11.50;99.90;;;;;;5054787;28;20044;-90
2023/06/02 04:04:24;;;;;;;6.22;4.38;;;11.50;99.90;;;;;;5057248;28;20617;-90
2023/06/02 04:06:50;;;;;;;5.47;4.00;;;11.50;99.90;;;;;;5039193;28;20024;-91
2023/06/02 04:09:16;;;;;;;8.63;3.80;;;11.60;99.90;;;;;;5060453;28;20048;-90
2023/06/02 04:11:41;;;;;;;5.10;3.80;;;11.50;99.90;;;;;;5061226;28;20554;-89
2023/06/02 04:14:08;;;;;;;5.18;3.90;;;11.60;99.90;;;;;;5060404;28;20050;-91
2023/06/02 04:16:34;;;;;;;4.78;4.13;;;11.60;99.90;;;;;;5039240;28;20588;-90
2023/06/02 04:19:00;;;;;;;4.25;3.78;;;11.60;99.90;;;;;;5062282;28;20053;-91
2023/06/02 04:21:26;;;;;;;6.32;4.20;;;11.70;99.90;;;;;;5058324;28;20108;-91
2023/06/02 04:23:51;;;;;;;7.15;4.25;;;11.70;99.90;;;;;;5060453;28;20053;-91
2023/06/02 04:26:18;;;;;;;6.55;4.72;;;11.70;99.90;;;;;;5056861;28;20090;-92
2023/06/02 04:28:44;;;;;;;4.72;4.05;;;11.80;99.90;;;;;;5078449;28;20404;-89
2023/06/02 04:31:11;;;;;;;6.07;4.63;;;11.80;99.90;;;;;;5073150;28;20045;-91
2023/06/02 04:33:37;;;;;;;5.78;4.40;;;11.80;99.90;;;;;;5058087;28;20031;-90
2023/06/02 04:36:03;;;;;;;6.15;4.55;;;11.90;99.90;;;;;;5062723;28;20373;-89
2023/06/02 04:38:29;;;;;;;8.65;4.55;;;12.00;99.90;;;;;;5056137;28;20041;-90
2023/06/02 04:40:57;;;;;;;5.88;4.35;;;12.00;99.90;;;;;;5041015;28;20025;-88
2023/06/02 04:43:22;;;;;;;6.43;4.37;;;12.10;99.90;;;;;;5057493;28;20032;-89
2023/06/02 04:45:48;;;;;;;5.45;4.38;;;12.30;99.90;;;;;;5060130;28;20040;-89
2023/06/02 04:48:14;;;;;;;8.50;4.47;;;12.40;99.90;;;;;;5053401;28;20087;-90
2023/06/02 04:50:40;;;;;;;7.18;4.47;;;12.60;99.90;;;;;;5056630;28;20059;-89
2023/06/02 04:53:06;;;;;;;6.82;4.63;;;12.70;99.90;;;;;;5049710;28;20378;-88
2023/06/02 04:55:32;;;;;;;5.30;4.35;;;12.70;99.90;;;;;;5059386;28;20029;-89
2023/06/02 04:57:58;;;;;;;6.95;4.65;;;12.80;99.90;;;;;;5055908;28;20464;-90
2023/06/02 05:00:24;;;;;;;5.50;5.00;;;12.90;99.90;;;;;;5045948;28;20029;-91
2023/06/02 05:02:50;;;;;;;6.97;5.55;;;12.90;99.90;;;;;;5051565;28;20579;-91
2023/06/02 05:05:15;;;;;;;6.68;4.85;;;13.10;99.90;;;;;;5058159;28;20401;-90
2023/06/02 05:07:43;;;;;;;6.63;5.38;;;13.20;99.90;;;;;;5055031;28;20024;-91
2023/06/02 05:10:09;;;;;;;7.15;5.53;;;13.30;99.90;;;;;;5061385;28;20036;-89
2023/06/02 05:12:41;;;;;;;6.78;4.82;;;13.50;99.90;;;;;;5071935;28;20024;-90
2023/06/02 05:15:07;;;;;;;7.63;5.45;;;13.70;99.90;;;;;;5057052;28;20023;-90
2023/06/02 05:17:34;;;;;;;6.28;5.47;;;13.80;99.90;;;;;;5061934;28;20564;-91
2023/06/02 05:20:00;;;;;;;7.85;5.63;;;13.70;99.90;;;;;;5060134;28;20025;-92
2023/06/02 05:22:27;;;;;;;9.70;5.88;;;13.70;99.90;;;;;;5060316;28;20086;-90
2023/06/02 05:24:55;;;;;;;9.25;5.68;;;13.70;99.90;;;;;;5045057;28;20035;-91
2023/06/02 05:27:20;;;;;;;7.40;5.85;;;13.70;99.90;;;;;;5062329;28;20096;-89
2023/06/02 05:29:47;;;;;;;7.68;6.13;;;13.90;99.90;;;;;;5062143;28;20044;-88
2023/06/02 05:32:13;;;;;;;7.22;5.93;;;14.10;99.90;;;;;;5038877;28;20037;-88
2023/06/02 05:34:40;;;;;;;7.63;6.10;;;14.30;99.90;;;;;;5063362;28;20024;-90
2023/06/02 05:43:31;;;;;;;9.43;5.90;;;14.80;99.90;;;;;;5070353;28;20023;-91
2023/06/02 05:49:06;;;;;;;9.07;5.75;;;15.00;99.90;;;;;;5037810;28;20038;-89
2023/06/02 05:51:51;;;;;;;;;;;;;;;;;;;;;
2023/06/02 05:54:50;;;;;;;8.68;5.75;;;15.40;99.90;;;;;;5084342;28;20052;-89
2023/06/02 05:57:25;;;;;;;8.18;5.78;;;15.50;99.90;;;;;;5071306;28;20028;-90
2023/06/02 06:00:15;;;;;;;8.85;5.70;;;15.60;99.90;;;;;;5061289;28;20063;-89
2023/06/02 06:02:44;;;;;;;9.68;4.97;;;15.60;99.90;;;;;;5075590;28;20096;-90
2023/06/02 06:05:46;;;;;;;;;;;;;;;;;;;;;
2023/06/02 06:08:24;;;;;;;6.38;5.40;;;15.70;99.90;;;;;;5071302;28;20063;-90
2023/06/02 06:11:17;;;;;;;6.45;4.85;;;15.80;99.90;;;;;;5069570;28;20055;-90
2023/06/02 06:13:49;;;;;;;7.57;5.13;;;15.90;99.90;;;;;;5068595;28;20036;-90
2023/06/02 06:16:19;;;;;;;8.52;4.68;;;15.90;99.90;;;;;;5075362;28;20036;-90
2023/06/02 06:18:44;;;;;;;8.32;4.93;;;16.10;99.90;;;;;;5063655;28;20064;-89
2023/06/02 06:21:10;;;;;;;6.85;4.53;;;16.10;99.90;;;;;;5058301;28;20063;-90
2023/06/02 06:23:36;;;;;;;6.40;4.90;;;16.10;99.90;;;;;;5055499;28;20024;-90
2023/06/02 06:26:02;;;;;;;7.30;4.75;;;16.20;99.90;;;;;;5064718;28;20447;-90
2023/06/02 06:28:27;;;;;;;10.80;5.50;;;16.20;99.90;;;;;;5050777;28;20051;-90
2023/06/02 06:30:53;;;;;;;6.82;5.18;;;16.20;99.90;;;;;;5073881;28;20032;-90
2023/06/02 06:33:19;;;;;;;6.82;5.05;;;16.40;99.90;;;;;;5076448;28;20029;-90
2023/06/02 06:35:44;;;;;;;7.38;4.57;;;16.40;99.90;;;;;;5071514;28;20032;-89
2023/06/02 06:38:10;;;;;;;7.07;4.68;;;16.50;99.90;;;;;;5078591;28;20013;-87
2023/06/02 06:40:36;;;;;;;6.63;4.32;;;16.60;99.90;;;;;;5066448;28;20013;-91
2023/06/02 06:43:05;;;;;;;7.55;4.63;;;16.60;99.90;;;;;;5090723;28;20020;-90
2023/06/02 06:45:31;;;;;;;13.98;5.32;;;16.70;99.90;;;;;;5079492;28;20009;-91
2023/06/02 06:47:57;;;;;;;8.52;4.15;;;16.80;99.90;;;;;;5072783;28;20087;-89
2023/06/02 06:50:23;;;;;;;8.35;4.68;;;17.00;99.90;;;;;;5078984;28;20017;-89
2023/06/02 06:52:50;;;;;;;6.97;4.45;;;17.10;99.90;;;;;;5064652;28;20039;-89
2023/06/02 06:55:16;;;;;;;7.05;4.45;;;17.10;99.90;;;;;;5060903;28;20067;-89
2023/06/02 06:57:41;;;;;;;9.65;4.70;;;17.20;99.90;;;;;;5076843;28;20036;-89
2023/06/02 07:00:08;;;;;;;6.18;4.72;;;17.30;99.90;;;;;;5079685;28;20084;-89
2023/06/02 07:02:34;;;;;;;7.20;4.53;;;17.40;99.90;;;;;;5073857;28;20035;-88
2023/06/02 07:05:01;;;;;;;9.00;5.10;;;17.50;99.90;;;;;;5079696;28;20029;-88
2023/06/02 07:07:27;;;;;;;7.30;4.60;;;17.60;99.90;;;;;;5065833;28;20009;-88
2023/06/02 07:09:53;;;;;;;8.15;4.53;;;17.60;99.90;;;;;;5065513;28;20016;-89
2023/06/02 07:12:19;;;;;;;6.97;4.53;;;17.80;99.90;;;;;;5078055;28;20027;-87
2023/06/02 07:14:45;;;;;;;7.32;4.95;;;17.80;99.90;;;;;;5075833;28;20025;-89
2023/06/02 07:17:11;;;;;;;10.15;5.43;;;17.80;99.90;;;;;;5061761;28;20041;-85
2023/06/02 07:19:36;;;;;;;8.57;4.70;;;17.80;99.90;;;;;;5094858;28;20035;-89
2023/06/02 07:22:02;;;;;;;10.38;5.13;;;17.90;99.90;;;;;;5082505;28;20038;-88
2023/06/02 07:24:28;;;;;;;7.72;5.15;;;17.80;99.90;;;;;;5073911;28;20009;-89
2023/06/02 07:26:55;;;;;;;8.35;5.20;;;17.90;99.90;;;;;;5078600;28;20508;-89
2023/06/02 07:29:21;;;;;;;7.38;4.93;;;18.00;99.90;;;;;;5074987;28;20028;-88
2023/06/02 07:31:46;;;;;;;8.23;4.82;;;18.20;99.90;;;;;;5074082;28;20029;-89
2023/06/02 07:34:12;;;;;;;7.72;5.07;;;18.20;99.90;;;;;;5072727;28;20357;-89
2023/06/02 07:36:38;;;;;;;6.75;4.90;;;18.10;99.90;;;;;;5071807;28;20024;-88
2023/06/02 07:39:04;;;;;;;9.32;5.30;;;18.10;99.90;;;;;;5050560;28;20067;-88
2023/06/02 07:41:33;;;;;;;9.50;4.97;;;18.20;99.90;;;;;;5062821;28;20017;-88
2023/06/02 07:43:59;;;;;;;9.48;5.72;;;18.40;99.90;;;;;;5055341;28;20025;-89
2023/06/02 07:46:24;;;;;;;8.90;5.10;;;18.30;99.90;;;;;;5060361;28;20170;-89
2023/06/02 07:48:50;;;;;;;8.05;5.75;;;18.30;99.90;;;;;;5050896;28;20029;-90
2023/06/02 07:51:16;;;;;;;7.57;5.15;;;18.30;99.90;;;;;;5066431;28;20048;-89
2023/06/02 07:53:42;;;;;;;8.40;5.15;;;18.50;99.90;;;;;;5059586;28;20025;-89
2023/06/02 07:56:08;;;;;;;9.57;5.07;;;18.50;99.90;;;;;;5066517;28;20040;-89
2023/06/02 07:58:34;;;;;;;11.00;5.50;;;18.50;99.90;;;;;;5063995;28;20115;-91
2023/06/02 08:01:00;;;;;;;15.02;6.25;;;18.70;99.90;;;;;;5048531;28;20033;-90
2023/06/02 08:03:26;;;;;;;11.50;5.53;;;18.80;99.90;;;;;;5066484;28;20140;-91
2023/06/02 08:05:52;;;;;;;8.80;5.35;;;18.80;99.90;;;;;;5058611;28;20503;-89
2023/06/02 08:08:19;;;;;;;8.45;5.10;;;18.80;99.90;;;;;;5065863;28;20096;-88
2023/06/02 08:10:45;;;;;;;8.50;5.47;;;18.70;99.90;;;;;;5064754;28;20524;-90
2023/06/02 08:13:12;;;;;;;9.13;5.30;;;18.90;99.90;;;;;;5074047;28;20060;-90
2023/06/02 08:15:38;;;;;;;8.75;5.18;;;18.80;99.90;;;;;;5056173;28;20074;-89
2023/06/02 08:18:04;;;;;;;7.10;5.07;;;18.80;99.90;;;;;;5063017;28;20053;-88
2023/06/02 08:20:30;;;;;;;9.25;5.10;;;18.90;99.90;;;;;;5082884;28;20017;-90
2023/06/02 08:22:56;;;;;;;8.48;4.78;;;18.90;99.90;;;;;;5062768;28;20052;-89
2023/06/02 08:25:22;;;;;;;11.30;5.22;;;19.00;99.90;;;;;;5065173;28;20036;-90
2023/06/02 08:27:48;;;;;;;7.35;4.93;;;19.10;99.90;;;;;;5065258;28;20039;-90
2023/06/02 08:30:14;;;;;;;8.10;5.00;;;19.00;99.90;;;;;;5059874;28;20028;-89
2023/06/02 08:32:40;;;;;;;7.40;5.20;;;19.20;99.90;;;;;;5061815;28;20115;-91
2023/06/02 08:35:07;;;;;;;9.32;5.28;;;19.30;99.90;;;;;;5061202;28;20031;-91
2023/06/02 08:37:33;;;;;;;10.43;4.90;;;19.40;99.90;;;;;;5060384;28;20025;-90
2023/06/02 08:40:00;;;;;;;12.17;5.53;;;19.40;99.90;;;;;;5080174;28;20103;-90
2023/06/02 08:42:27;;;;;;;8.82;5.25;;;19.50;99.90;;;;;;5063274;28;20689;-90
2023/06/02 08:44:53;;;;;;;8.88;5.47;;;19.70;99.90;;;;;;5063106;28;20024;-91
2023/06/02 08:47:32;;;;;;;8.02;5.25;;;19.70;99.90;;;;;;5065425;28;20024;-90
2023/06/02 08:50:05;;;;;;;7.93;5.13;;;19.80;99.90;;;;;;5061493;28;20025;-90
2023/06/02 08:52:34;;;;;;;7.00;4.47;;;19.70;99.90;;;;;;5062204;28;20051;-89
2023/06/02 08:55:03;;;;;;;8.85;5.13;;;19.70;99.90;;;;;;5062282;28;20036;-89
2023/06/02 08:57:29;;;;;;;9.93;5.50;;;19.90;99.90;;;;;;5056954;28;20020;-91
2023/06/02 08:59:56;;;;;;;12.32;5.43;;;19.90;99.90;;;;;;5061521;28;20017;-89
2023/06/02 09:02:22;;;;;;;9.60;5.38;;;19.80;99.90;;;;;;5041788;28;20029;-89
2023/06/02 09:04:51;;;;;;;10.27;5.90;;;19.90;99.90;;;;;;5063285;28;20120;-90
2023/06/02 09:07:20;;;;;;;8.77;5.68;;;20.00;99.90;;;;;;5073974;28;20031;-89
2023/06/02 09:09:48;;;;;;;9.13;5.55;;;20.40;99.90;;;;;;5060135;28;20029;-90
2023/06/02 09:12:18;;;;;;;;;;;20.40;99.90;;;;;;5059957;28;20564;-90
2023/06/02 09:14:45;;;;;;;11.75;5.88;;;20.40;99.90;;;;;;5055934;28;19920;-89
2023/06/02 09:17:30;;;;;;;7.40;5.28;;;20.60;99.90;;;;;;5057421;28;20053;-88
2023/06/02 09:19:58;;;;;;;11.80;5.55;;;20.50;99.90;;;;;;5056569;28;20021;-89
2023/06/02 09:22:24;;;;;;;;;;;20.50;99.90;;;;;;5056564;28;20431;-89
2023/06/02 09:24:53;;;;;;;18.35;6.18;;;20.70;99.90;;;;;;5058517;28;19908;-90
2023/06/02 09:27:19;;;;;;;9.88;5.68;;;20.80;99.90;;;;;;5060846;28;20531;-90
2023/06/02 09:29:50;;;;;;;11.13;5.97;;;21.20;99.90;;;;;;5057685;28;20031;-90
2023/06/02 09:32:17;;;;;;;9.40;5.50;;;21.40;99.90;;;;;;5059469;28;20151;-90
2023/06/02 09:34:45;;;;;;;8.45;5.25;;;21.40;99.90;;;;;;5061773;28;20025;-89
2023/06/02 09:37:20;;;;;;;7.97;5.57;;;21.60;99.90;;;;;;5053493;28;20040;-91
2023/06/02 09:39:57;;;;;;;8.40;5.18;;;21.70;99.90;;;;;;5062598;28;20028;-90
2023/06/02 09:42:22;;;;;;;11.77;5.88;;;21.90;99.90;;;;;;5048588;28;20021;-92
2023/06/02 09:45:05;;;;;;;9.82;6.10;;;22.00;99.90;;;;;;5062614;28;20031;-92
2023/06/02 09:47:37;;;;;;;9.95;5.70;;;22.00;99.90;;;;;;5058024;28;20025;-90
2023/06/02 09:50:04;;;;;;;9.88;5.13;;;22.00;99.90;;;;;;5061283;28;20044;-92
2023/06/02 09:52:30;;;;;;;10.13;6.03;;;22.00;99.90;;;;;;5050631;28;20036;-90
2023/06/02 09:54:59;;;;;;;10.90;6.35;;;22.20;99.90;;;;;;5071348;28;20090;-92
2023/06/02 09:57:26;;;;;;;10.77;6.30;;;22.10;99.90;;;;;;5051823;28;20020;-91
2023/06/02 09:59:52;;;;;;;9.00;5.20;;;22.20;99.90;;;;;;5043560;28;20025;-89
2023/06/02 10:02:19;;;;;;;7.72;5.25;;;22.30;99.90;;;;;;5037446;28;20027;-90
2023/06/02 10:04:49;;;;;;;9.85;5.53;;;22.30;99.90;;;;;;5048537;28;20036;-90
2023/06/02 10:07:34;;;;;;;7.75;5.60;;;22.50;99.90;;;;;;5054349;28;20481;-93
2023/06/02 10:10:10;;;;;;;6.90;5.10;;;22.50;99.90;;;;;;5054833;28;20496;-91
2023/06/02 10:13:06;;;;;;;11.20;5.22;;;22.60;99.90;;;;;;5049228;28;20036;-88
2023/06/02 10:15:49;;;;;;;9.03;5.20;;;22.60;99.90;;;;;;5059233;28;20013;-93
2023/06/02 10:18:30;;;;;;;7.40;4.85;;;22.60;99.90;;;;;;5071354;28;20477;-89
2023/06/02 10:21:15;;;;;;;10.85;5.32;;;22.60;99.90;;;;;;5057988;28;20020;-92
2023/06/02 10:24:13;;;;;;;10.05;5.53;;;22.80;99.90;;;;;;5049672;28;20021;-91
2023/06/02 10:26:45;;;;;;;8.52;5.57;;;22.80;99.90;;;;;;5057813;28;20024;-90
2023/06/02 10:29:14;;;;;;;9.52;5.15;;;22.80;99.90;;;;;;5052845;28;20033;-91
2023/06/02 10:31:41;;;;;;;9.93;5.15;;;23.00;99.90;;;;;;5042786;28;20052;-91
2023/06/02 10:34:07;;;;;;;8.25;4.82;;;22.90;99.90;;;;;;5052567;28;20067;-92
2023/06/02 10:37:01;;;;;;;7.57;4.72;;;23.00;99.90;;;;;;5062149;28;20388;-92
2023/06/02 10:39:39;;;;;;;8.93;5.38;;;23.10;99.90;;;;;;5051798;28;20021;-90
2023/06/02 10:42:07;;;;;;;8.90;5.13;;;23.10;99.90;;;;;;5048529;28;20016;-91
2023/06/02 10:44:33;;;;;;;8.27;4.10;;;23.20;99.90;;;;;;5076789;28;20029;-91
2023/06/02 10:47:17;;;;;;;6.97;4.93;;;23.10;99.90;;;;;;5065337;28;20029;-90
2023/06/02 10:49:57;;;;;;;9.18;4.70;;;23.30;99.90;;;;;;5052549;28;20043;-91
2023/06/02 10:52:31;;;;;;;4.90;4.07;;;23.20;99.90;;;;;;5045889;28;20031;-91
2023/06/02 10:55:12;;;;;;;7.32;4.88;;;23.20;99.90;;;;;;5058662;28;20024;-90
2023/06/02 10:57:52;;;;;;;6.10;4.03;;;23.30;99.90;;;;;;5076323;28;20092;-94
2023/06/02 11:00:32;;;;;;;7.97;4.40;;;23.30;99.90;;;;;;5057818;28;20017;-92
2023/06/02 11:03:03;;;;;;;5.00;4.15;;;23.20;99.90;;;;;;5072986;28;20039;-90
2023/06/02 11:05:30;;;;;;;6.38;4.40;;;23.40;99.90;;;;;;5064807;28;20055;-90
2023/06/02 11:08:15;;;;;;;7.30;4.28;;;23.40;99.90;;;;;;5060575;28;20457;-91
2023/06/02 11:10:43;;;;;;;4.82;4.07;;;23.40;99.90;;;;;;5063756;28;20033;-90
2023/06/02 11:13:10;;;;;;;6.82;4.10;;;23.60;99.90;;;;;;5063905;28;20029;-91
2023/06/02 11:15:49;;;;;;;6.45;4.40;;;23.70;99.90;;;;;;5064320;28;20267;-90
2023/06/02 11:18:33;;;;;;;7.40;4.88;;;23.70;99.90;;;;;;5066978;28;20076;-88
2023/06/02 11:21:20;;;;;;;7.72;4.63;;;23.80;99.90;;;;;;5062467;28;20059;-91
2023/06/02 11:23:46;;;;;;;5.20;4.10;;;23.80;99.90;;;;;;5063629;28;20048;-89
2023/06/02 11:26:21;;;;;;;9.15;4.25;;;23.80;99.90;;;;;;5059085;28;20025;-91
2023/06/02 11:28:47;;;;;;;5.05;3.80;;;23.90;99.90;;;;;;5056564;28;20032;-92
2023/06/02 11:31:15;;;;;;;6.78;4.45;;;23.90;99.90;;;;;;5062361;28;20116;-92
2023/06/02 11:33:48;;;;;;;4.88;3.88;;;23.90;99.90;;;;;;5062200;28;20029;-91
2023/06/02 11:36:15;;;;;;;7.82;4.95;;;24.00;99.90;;;;;;5042627;28;20028;-91
2023/06/02 11:38:42;;;;;;;8.43;5.18;;;23.80;99.90;;;;;;5061327;28;20029;-90
2023/06/02 11:41:15;;;;;;;6.70;4.15;;;23.70;99.90;;;;;;5063106;28;20045;-92
2023/06/02 11:43:51;;;;;;;7.88;4.95;;;23.80;99.90;;;;;;5053605;28;20661;-91
2023/06/02 11:46:19;;;;;;;7.38;4.93;;;23.70;99.90;;;;;;5062592;28;20052;-92
2023/06/02 11:48:45;;;;;;;8.20;5.22;;;23.70;99.90;;;;;;5069758;28;20028;-91
2023/06/02 11:51:13;;;;;;;8.07;5.28;;;23.50;99.90;;;;;;5063510;28;20349;-92
2023/06/02 11:53:49;;;;;;;7.95;4.43;;;23.40;99.90;;;;;;5046540;28;20037;-91
2023/06/02 11:56:16;;;;;;;7.47;5.00;;;23.70;99.90;;;;;;5050476;28;20024;-91
2023/06/02 11:58:46;;;;;;;8.02;4.68;;;23.40;99.90;;;;;;5064321;28;20017;-91
2023/06/02 12:01:21;;;;;;;7.68;4.82;;;23.30;99.90;;;;;;5052381;28;20040;-93
2023/06/02 12:04:02;;;;;;;7.80;4.78;;;23.30;99.90;;;;;;5071844;28;20025;-91
2023/06/02 12:06:31;;;;;;;6.30;4.70;;;23.30;99.90;;;;;;5061273;28;20029;-92
2023/06/02 12:09:18;;;;;;;6.35;4.65;;;23.20;99.90;;;;;;5059723;28;20032;-91
2023/06/02 12:11:45;;;;;;;7.38;4.30;;;23.30;99.90;;;;;;5067946;28;20056;-91
2023/06/02 12:14:14;;;;;;;7.38;5.10;;;23.50;99.90;;;;;;5061753;28;20049;-90
2023/06/02 12:16:43;;;;;;;5.28;4.20;;;23.80;99.90;;;;;;5066398;28;20047;-92
2023/06/02 12:19:20;;;;;;;5.95;4.40;;;24.00;99.90;;;;;;5080788;28;20493;-90
2023/06/02 12:21:50;;;;;;;7.72;4.25;;;24.10;99.90;;;;;;5069962;28;20048;-91
2023/06/02 12:24:29;;;;;;;6.20;4.20;;;24.00;99.90;;;;;;5063351;28;20029;-90
2023/06/02 12:26:55;;;;;;;6.55;4.57;;;23.90;99.90;;;;;;5062253;28;20027;-89
2023/06/02 12:29:24;;;;;;;5.18;4.05;;;23.90;99.90;;;;;;5065478;28;20080;-92
2023/06/02 12:31:59;;;;;;;8.00;3.85;;;23.90;99.90;;;;;;5060446;28;20024;-90
2023/06/02 12:34:25;;;;;;;6.40;4.38;;;24.20;99.90;;;;;;5061954;28;20029;-90
2023/06/02 12:36:52;;;;;;;6.57;4.45;;;24.40;99.90;;;;;;5064070;28;20021;-92
2023/06/02 12:39:19;;;;;;;7.68;4.25;;;24.30;99.90;;;;;;5065037;28;20358;-92
2023/06/02 12:41:44;;;;;;;7.78;4.53;;;24.30;99.90;;;;;;5057243;28;20489;-93
2023/06/02 12:44:10;;;;;;;9.93;4.88;;;24.20;99.90;;;;;;5064373;28;20124;-91
2023/06/02 12:46:38;;;;;;;6.35;4.75;;;24.20;99.90;;;;;;5082306;28;20058;-93
2023/06/02 12:49:04;;;;;;;;;;;24.20;99.90;;;;;;5062103;28;20119;-92
2023/06/02 12:51:31;;;;;;;6.15;4.40;;;24.50;99.90;;;;;;5063504;28;19913;-90
2023/06/02 12:53:58;;;;;;;6.97;4.13;;;24.50;99.90;;;;;;5073654;28;20107;-91
2023/06/02 12:56:25;;;;;;;7.35;4.57;;;24.40;99.90;;;;;;5038721;28;20029;-91
2023/06/02 12:58:51;;;;;;;8.65;4.70;;;24.60;99.90;;;;;;5067108;28;20025;-90
2023/06/02 13:01:20;;;;;;;7.18;4.00;;;24.60;99.90;;;;;;5065711;28;20029;-90
2023/06/02 13:03:49;;;;;;;8.40;4.80;;;24.40;99.90;;;;;;5065817;28;20032;-92
2023/06/02 13:06:17;;;;;;;7.80;4.82;;;24.10;99.90;;;;;;5051944;28;20091;-94
2023/06/02 13:08:44;;;;;;;7.85;4.80;;;23.60;99.90;;;;;;5053573;28;20119;-93